This is the latest recevied weather packets stored in our database for station/object DL2GPS-3. If no packets are shown the sender has not sent any weather packets the latest 10 day(s).
| Time | Temp. | Humidity | Pressure | Rain* | Wind** | Luminosity | Snow |
|---|---|---|---|---|---|---|---|
| 1787938117 | 17.22° C | 70% | 1018.1 hPa | - | - | - | - |
| 1787937512 | 17.78° C | 71% | 1018 hPa | - | - | - | - |
| 1787936907 | 17.78° C | 69% | 1017.9 hPa | - | - | - | - |
| 1787936302 | 17.78° C | 68% | 1017.7 hPa | - | - | - | - |
| 1787935697 | 18.33° C | 67% | 1017.6 hPa | - | - | - | - |
| 1787935093 | 18.33° C | 68% | 1017.6 hPa | - | - | - | - |
| 1787934488 | 18.89° C | 67% | 1017.4 hPa | - | - | - | - |
| 1787933893 | 19.44° C | 66% | 1017.5 hPa | - | - | - | - |
| 1787933277 | 19.44° C | 64% | 1017.5 hPa | - | - | - | - |
| 1787932672 | 20° C | 62% | 1017.4 hPa | - | - | - | - |
| 1787932067 | 20.56° C | 60% | 1017.2 hPa | - | - | - | - |
| 1787931461 | 21.11° C | 60% | 1017.3 hPa | - | - | - | - |
| 1787930856 | 20.56° C | 60% | 1017.3 hPa | - | - | - | - |
| 1787930252 | 21.11° C | 62% | 1017 hPa | - | - | - | - |
| 1787929646 | 20.56° C | 66% | 1017.5 hPa | - | - | - | - |
| 1787929042 | 20° C | 73% | 1017.5 hPa | - | - | - | - |
| 1787928437 | 20° C | 73% | 1017.3 hPa | - | - | - | - |
| 1787927832 | 20° C | 70% | 1017.5 hPa | - | - | - | - |
| 1787927227 | 19.44° C | 70% | 1017.7 hPa | - | - | - | - |
| 1787926622 | 20.56° C | 66% | 1017.5 hPa | - | - | - | - |
| 1787926017 | 21.11° C | 66% | 1017.6 hPa | - | - | - | - |
| 1787925412 | 20.56° C | 71% | 1017.8 hPa | - | - | - | - |
| 1787924807 | 21.67° C | 69% | 1017.8 hPa | - | - | - | - |
| 1787924202 | 21.67° C | 66% | 1017.6 hPa | - | - | - | - |
| 1787923597 | 22.78° C | 71% | 1017.3 hPa | - | - | - | - |
* Rain since midnight (hover to see other rain measurements)
** Current wind speed in m/s (hover to see current wind gust speed)